createdAt,value
2018-09-11T00:01:02.242Z,3.17
2018-09-11T00:06:00.784Z,3.05
2018-09-11T00:10:59.832Z,3.60
2018-09-11T00:15:58.240Z,3.25
2018-09-11T00:20:57.588Z,2.98
2018-09-11T00:25:56.797Z,3.00
2018-09-11T00:30:55.563Z,3.00
2018-09-11T00:35:53.381Z,3.33
2018-09-11T00:40:52.481Z,3.17
2018-09-11T00:45:51.105Z,2.92
2018-09-11T00:50:50.548Z,2.40
2018-09-11T00:55:48.791Z,3.00
2018-09-11T01:00:47.601Z,2.95
2018-09-11T01:05:47.578Z,3.08
2018-09-11T01:10:45.776Z,2.50
2018-09-11T01:15:44.318Z,2.83
2018-09-11T01:20:44.255Z,2.55
2018-09-11T01:25:42.997Z,2.92
2018-09-11T01:30:41.321Z,2.55
2018-09-11T01:35:45.832Z,2.67
2018-09-11T01:40:47.496Z,3.05
2018-09-11T01:45:46.832Z,2.47
2018-09-11T01:50:47.062Z,2.60
2018-09-11T01:55:46.146Z,2.52
2018-09-11T02:00:45.407Z,2.45
2018-09-11T02:05:45.657Z,2.55
2018-09-11T02:10:44.766Z,2.20
2018-09-11T02:15:44.475Z,2.65
2018-09-11T02:20:44.721Z,3.30
2018-09-11T02:25:43.413Z,3.00
2018-09-11T02:30:43.095Z,3.02
2018-09-11T02:35:42.871Z,3.08
2018-09-11T02:40:41.391Z,2.67
2018-09-11T02:45:40.285Z,2.95
2018-09-11T02:50:39.747Z,3.30
2018-09-11T02:55:38.783Z,3.83
2018-09-11T03:00:38.816Z,2.80
2018-09-11T03:05:37.618Z,2.80
2018-09-11T03:10:37.129Z,3.17
2018-09-11T03:15:37.085Z,3.25
2018-09-11T03:20:36.564Z,2.98
2018-09-11T03:25:36.521Z,3.30
2018-09-11T03:30:36.150Z,3.35
2018-09-11T03:35:35.282Z,3.27
2018-09-11T03:40:34.844Z,3.37
2018-09-11T03:45:33.959Z,3.33
2018-09-11T03:50:35.556Z,3.10
2018-09-11T03:55:33.065Z,3.22
2018-09-11T04:00:29.340Z,3.45
2018-09-11T04:05:28.272Z,3.20
2018-09-11T04:10:25.218Z,3.52
2018-09-11T04:15:22.869Z,3.22
2018-09-11T04:20:20.237Z,3.20
2018-09-11T04:25:17.720Z,2.85
2018-09-11T04:30:14.802Z,3.10
2018-09-11T04:35:12.845Z,3.70
2018-09-11T04:40:11.040Z,2.92
2018-09-11T04:45:09.483Z,3.20
2018-09-11T04:50:08.630Z,3.33
2018-09-11T04:55:05.911Z,2.95
2018-09-11T05:00:04.036Z,2.85
2018-09-11T05:05:01.516Z,2.98
2018-09-11T05:09:57.741Z,3.10
2018-09-11T05:14:51.052Z,2.80
2018-09-11T05:19:44.836Z,3.35
2018-09-11T05:24:38.208Z,3.00
2018-09-11T05:29:31.453Z,3.45
2018-09-11T05:34:24.714Z,3.02
2018-09-11T05:39:17.963Z,2.90
2018-09-11T05:44:11.186Z,2.83
2018-09-11T05:49:05.413Z,2.90
2018-09-11T05:53:59.522Z,3.00
2018-09-11T05:58:52.825Z,2.47
2018-09-11T06:03:46.097Z,2.95
2018-09-11T06:08:39.333Z,2.58
2018-09-11T06:13:33.123Z,2.70
2018-09-11T06:18:26.866Z,2.70
2018-09-11T06:23:20.187Z,2.62
2018-09-11T06:28:13.432Z,2.65
2018-09-11T06:33:06.651Z,2.83
2018-09-11T06:37:59.893Z,2.62
2018-09-11T06:42:53.173Z,1.87
2018-09-11T06:47:46.512Z,1.98
2018-09-11T06:52:39.756Z,2.10
2018-09-11T06:57:32.959Z,1.95
2018-09-11T07:02:26.294Z,2.10
2018-09-11T07:07:19.693Z,1.92
2018-09-11T07:12:12.898Z,2.35
2018-09-11T07:17:06.292Z,2.00
2018-09-11T07:21:59.606Z,1.90
2018-09-11T07:26:52.962Z,1.98
2018-09-11T07:31:46.293Z,2.20
2018-09-11T07:36:39.531Z,1.90
2018-09-11T07:41:32.771Z,2.00
2018-09-11T07:46:26.013Z,1.80
2018-09-11T07:51:19.270Z,1.70
2018-09-11T07:56:12.514Z,1.72
2018-09-11T08:01:05.745Z,1.87
2018-09-11T08:05:58.957Z,1.90
2018-09-11T08:10:52.199Z,1.30
2018-09-11T08:15:45.489Z,1.20
2018-09-11T08:20:38.724Z,1.22
2018-09-11T08:25:31.961Z,1.00
2018-09-11T08:30:28.921Z,1.52
2018-09-11T08:35:22.150Z,1.17
2018-09-11T08:40:15.466Z,1.27
2018-09-11T08:45:08.721Z,1.30
2018-09-11T08:50:01.981Z,1.30
2018-09-11T08:54:55.293Z,1.30
2018-09-11T08:59:48.525Z,1.17
2018-09-11T09:04:41.817Z,1.47
2018-09-11T09:09:35.087Z,1.10
2018-09-11T09:14:28.332Z,1.30
2018-09-11T09:19:21.751Z,1.30
2018-09-11T09:24:14.985Z,1.55
2018-09-11T09:29:08.889Z,1.40
2018-09-11T09:34:02.226Z,1.35
2018-09-11T09:38:55.589Z,1.40
2018-09-11T09:43:48.834Z,1.70
2018-09-11T09:48:42.108Z,1.47
2018-09-11T09:53:35.320Z,1.12
2018-09-11T09:58:28.837Z,1.60
2018-09-11T10:03:22.130Z,1.40
2018-09-11T10:08:15.376Z,1.60
2018-09-11T10:13:08.604Z,1.22
2018-09-11T10:18:01.850Z,1.72
2018-09-11T10:22:55.082Z,2.00
2018-09-11T10:27:48.310Z,1.50
2018-09-11T10:32:41.643Z,1.67
2018-09-11T10:37:34.974Z,1.47
2018-09-11T10:42:28.217Z,1.67
2018-09-11T10:47:21.441Z,1.75
2018-09-11T10:52:14.696Z,1.50
2018-09-11T10:57:08.058Z,1.40
2018-09-11T11:02:01.334Z,1.42
2018-09-11T11:06:54.631Z,1.40
2018-09-11T11:11:47.905Z,1.45
2018-09-11T11:16:41.182Z,1.40
2018-09-11T11:21:34.420Z,1.60
2018-09-11T11:26:27.634Z,1.95
2018-09-11T11:31:20.898Z,1.45
2018-09-11T11:36:14.175Z,1.70
2018-09-11T11:41:07.456Z,2.17
2018-09-11T11:46:00.804Z,1.98
2018-09-11T11:50:54.037Z,1.55
2018-09-11T11:55:47.268Z,1.80
2018-09-11T12:00:40.567Z,1.60
2018-09-11T12:05:33.832Z,1.82
2018-09-11T12:10:27.099Z,1.70
2018-09-11T12:15:20.334Z,2.27
2018-09-11T12:20:13.571Z,1.70
2018-09-11T12:25:06.841Z,1.82
2018-09-11T12:30:00.795Z,1.80
2018-09-11T12:34:54.091Z,1.80
2018-09-11T12:39:47.363Z,2.10
2018-09-11T12:44:41.330Z,1.87
2018-09-11T12:49:34.562Z,1.90
2018-09-11T12:54:27.783Z,1.80
2018-09-11T12:59:21.069Z,1.85
2018-09-11T13:04:14.346Z,1.90
2018-09-11T13:09:07.912Z,2.10
2018-09-11T13:14:01.204Z,1.50
2018-09-11T13:18:54.420Z,1.87
2018-09-11T13:23:47.662Z,2.00
2018-09-11T13:28:40.893Z,3.42
2018-09-11T13:33:34.130Z,1.80
2018-09-11T13:38:27.372Z,1.72
2018-09-11T13:43:20.623Z,1.55
2018-09-11T13:48:14.323Z,1.77
2018-09-11T13:53:07.589Z,1.55
2018-09-11T13:58:00.857Z,1.80
2018-09-11T14:02:55.141Z,1.90
2018-09-11T14:07:48.400Z,1.70
2018-09-11T14:12:41.726Z,1.42
2018-09-11T14:17:35.083Z,1.95
2018-09-11T14:22:28.353Z,1.87
2018-09-11T14:27:21.831Z,2.10
2018-09-11T14:32:15.085Z,2.00
2018-09-11T14:37:08.424Z,2.42
2018-09-11T14:42:01.696Z,2.08
2018-09-11T14:46:54.977Z,2.15
2018-09-11T14:51:48.539Z,1.95
2018-09-11T14:56:41.835Z,3.22
2018-09-11T15:01:35.137Z,2.22
2018-09-11T15:06:28.430Z,1.75
2018-09-11T15:11:21.726Z,2.27
2018-09-11T15:16:14.985Z,4.40
2018-09-11T15:21:08.233Z,2.22
2018-09-11T15:26:01.549Z,2.00
2018-09-11T15:30:54.818Z,2.30
2018-09-11T15:35:48.066Z,2.35
2018-09-11T15:40:41.326Z,2.33
2018-09-11T15:45:34.569Z,2.35
2018-09-11T15:50:27.841Z,2.40
2018-09-11T15:55:21.134Z,2.25
2018-09-11T16:00:14.443Z,2.17
2018-09-11T16:05:07.704Z,2.12
2018-09-11T16:10:00.951Z,2.37
2018-09-11T16:14:54.207Z,2.60
2018-09-11T16:19:47.506Z,2.20
2018-09-11T16:24:40.771Z,2.17
2018-09-11T16:29:34.038Z,2.65
2018-09-11T16:34:27.354Z,2.55
2018-09-11T16:39:20.605Z,2.25
2018-09-11T16:44:13.839Z,2.12
2018-09-11T16:49:07.809Z,2.27
2018-09-11T16:54:01.139Z,1.90
2018-09-11T16:59:01.272Z,2.47
2018-09-11T17:03:54.532Z,2.60
2018-09-11T17:08:47.860Z,2.67
2018-09-11T17:13:41.055Z,2.83
2018-09-11T17:18:34.328Z,2.00
2018-09-11T17:23:27.589Z,2.27
2018-09-11T17:28:20.819Z,2.10
2018-09-11T17:33:14.107Z,2.83
2018-09-11T17:38:07.381Z,2.33
2018-09-11T17:43:00.635Z,2.22
2018-09-11T17:47:54.943Z,2.22
2018-09-11T17:52:48.157Z,2.40
2018-09-11T17:57:41.475Z,2.35
2018-09-11T18:02:34.951Z,2.60
2018-09-11T18:07:28.279Z,2.35
2018-09-11T18:12:21.505Z,2.50
2018-09-11T18:17:14.761Z,2.80
2018-09-11T18:22:08.039Z,2.72
2018-09-11T18:27:01.277Z,2.12
2018-09-11T18:31:54.665Z,2.67
2018-09-11T18:36:47.950Z,2.40
2018-09-11T18:41:41.291Z,3.20
2018-09-11T18:46:34.560Z,3.20
2018-09-11T18:51:34.600Z,3.40
2018-09-11T18:56:27.821Z,2.72
2018-09-11T19:01:21.057Z,2.77
2018-09-11T19:06:14.301Z,2.70
2018-09-11T19:11:07.639Z,3.90
2018-09-11T19:16:00.939Z,3.70
2018-09-11T19:20:54.237Z,3.72
2018-09-11T19:25:47.510Z,3.45
2018-09-11T19:30:41.521Z,4.05
2018-09-11T19:35:34.819Z,3.40
2018-09-11T19:40:28.077Z,3.30
2018-09-11T19:45:21.375Z,2.92
2018-09-11T19:50:14.735Z,3.12
2018-09-11T19:55:07.977Z,3.52
2018-09-11T20:00:01.295Z,3.60
2018-09-11T20:05:01.275Z,2.80
2018-09-11T20:09:54.531Z,3.45
2018-09-11T20:14:48.768Z,3.20
2018-09-11T20:19:42.051Z,2.80
2018-09-11T20:24:35.296Z,2.95
2018-09-11T20:29:28.551Z,3.30
2018-09-11T20:34:21.818Z,2.60
2018-09-11T20:39:15.071Z,2.92
2018-09-11T20:44:09.417Z,2.80
2018-09-11T20:49:02.665Z,3.42
2018-09-11T20:53:55.941Z,4.00
2018-09-11T20:58:49.159Z,3.55
2018-09-11T21:03:42.412Z,3.85
2018-09-11T21:08:35.664Z,3.12
2018-09-11T21:13:29.064Z,2.80
2018-09-11T21:18:22.361Z,3.00
2018-09-11T21:23:15.611Z,3.27
2018-09-11T21:28:08.994Z,3.72
2018-09-11T21:33:02.265Z,3.70
2018-09-11T21:37:55.511Z,3.62
2018-09-11T21:42:48.714Z,3.85
2018-09-11T21:47:42.016Z,2.77
2018-09-11T21:52:35.348Z,3.65
2018-09-11T21:57:28.551Z,3.00
2018-09-11T22:02:21.814Z,3.30
2018-09-11T22:07:15.067Z,3.47
2018-09-11T22:12:08.295Z,3.62
2018-09-11T22:17:01.694Z,2.90
2018-09-11T22:21:54.999Z,4.00
2018-09-11T22:26:48.206Z,3.33
2018-09-11T22:31:41.432Z,3.00
2018-09-11T22:36:34.705Z,3.12
2018-09-11T22:41:27.923Z,3.12
2018-09-11T22:46:22.055Z,3.40
2018-09-11T22:51:15.293Z,3.10
2018-09-11T22:56:08.566Z,3.45
2018-09-11T23:01:01.758Z,3.83
2018-09-11T23:05:55.135Z,3.58
2018-09-11T23:10:48.384Z,3.62
2018-09-11T23:15:41.579Z,3.55
2018-09-11T23:20:34.781Z,3.67
2018-09-11T23:25:28.085Z,3.35
2018-09-11T23:30:21.307Z,3.35
2018-09-11T23:35:14.601Z,3.37
2018-09-11T23:40:07.908Z,3.52
2018-09-11T23:45:01.126Z,3.15
2018-09-11T23:49:54.867Z,3.55
2018-09-11T23:54:48.081Z,3.40
2018-09-11T23:59:41.387Z,3.40
